PWSweather.com
Personal Weather Stations
Station Observations
KMNHANSK2
Andys Live Weather Stations, Hanska, MN 56041

Andys Live Weather StationsHanska, MN 56041

Lat: 44.170119, Lon: -94.381619

Elevation: 1004

Station Type: Davis Instruments Vantage Pro2 Plus

http://www.madeliasliveweather.com/thompsonfarms/

Latest ConditionsUpdated 2:44:01 AM CST Saturday, Feb 13, 2016
Currently Today's Max Today's Min Today's Average
Temperature -5.0°F-20.6°C -1.6°F-18.7°C -5.3°F-20.7°C -3.3°F-19.6°C
Dew Point -9.1°F-22.8°C -6.5°F-21.4°C -9.7°F-23.2°C -7.9°F-22.2°C
Winds 2.0 mph WNW3.2 kmh WNW 8.0 mph NW12.9 kmh NW - 4.4 mph 7.1 kmh
Wind Gusts 7.0 mph11.3 kmh 10.0 mph16.1 kmh - -
Humidity 82% 82% 79% 80%
Pressure 30.76 in1041.7 mb 30.76 in1041.7 mb 30.73 in1040.6 mb -
Hour Temp Dew Point Humidity Winds Wind Gusts Pressure Precip Precip Rate Daily Precip Total
02:44 AM -5.0°F-20.6°C -9.1°F-22.8°C 82% 2.0 mph WNW3.2 kmh WNW 7.0 mph11.3 kmh 30.76 in1041.7 mb 0.00 in0.0 mm 0.00 in0.0 mm 0.00 in0.0 mm
02:43 AM -5.0°F-20.6°C -9.1°F-22.8°C 82% 1.0 mph WNW1.6 kmh WNW 7.0 mph11.3 kmh 30.76 in1041.7 mb 0.00 in0.0 mm 0.00 in0.0 mm 0.00 in0.0 mm
02:42 AM -4.9°F-20.5°C -9.0°F-22.8°C 82% Calm Calm 7.0 mph11.3 kmh 30.76 in1041.7 mb 0.00 in0.0 mm 0.00 in0.0 mm 0.00 in0.0 mm
02:41 AM -4.8°F-20.4°C -8.9°F-22.7°C 82% Calm Calm 7.0 mph11.3 kmh 30.76 in1041.7 mb 0.00 in0.0 mm 0.00 in0.0 mm 0.00 in0.0 mm
02:40 AM -4.7°F-20.4°C -8.8°F-22.7°C 82% Calm Calm 7.0 mph11.3 kmh 30.76 in1041.7 mb 0.00 in0.0 mm 0.00 in0.0 mm 0.00 in0.0 mm
02:38 AM -4.6°F-20.3°C -8.7°F-22.6°C 82% Calm Calm 7.0 mph11.3 kmh 30.76 in1041.7 mb 0.00 in0.0 mm 0.00 in0.0 mm 0.00 in0.0 mm
02:37 AM -4.6°F-20.3°C -8.7°F-22.6°C 82% 4.0 mph WNW6.4 kmh WNW 7.0 mph11.3 kmh 30.76 in1041.7 mb 0.00 in0.0 mm 0.00 in0.0 mm 0.00 in0.0 mm
02:35 AM -4.6°F-20.3°C -8.7°F-22.6°C 82% 3.0 mph WNW4.8 kmh WNW 7.0 mph11.3 kmh 30.76 in1041.7 mb 0.00 in0.0 mm 0.00 in0.0 mm 0.00 in0.0 mm
02:34 AM -4.7°F-20.4°C -8.8°F-22.7°C 82% 3.0 mph WNW4.8 kmh WNW 7.0 mph11.3 kmh 30.76 in1041.7 mb 0.00 in0.0 mm 0.00 in0.0 mm 0.00 in0.0 mm
02:33 AM -4.7°F-20.4°C -8.8°F-22.7°C 82% 4.0 mph WNW6.4 kmh WNW 7.0 mph11.3 kmh 30.76 in1041.7 mb 0.00 in0.0 mm 0.00 in0.0 mm 0.00 in0.0 mm
02:32 AM -4.7°F-20.4°C -8.8°F-22.7°C 82% 5.0 mph WNW8.0 kmh WNW 7.0 mph11.3 kmh 30.76 in1041.7 mb 0.00 in0.0 mm 0.00 in0.0 mm 0.00 in0.0 mm
02:31 AM -4.8°F-20.4°C -8.9°F-22.7°C 82% 5.0 mph WNW8.0 kmh WNW 6.0 mph9.7 kmh 30.76 in1041.7 mb 0.00 in0.0 mm 0.00 in0.0 mm 0.00 in0.0 mm
02:30 AM -4.8°F-20.4°C -8.9°F-22.7°C 82% 6.0 mph WNW9.7 kmh WNW 6.0 mph9.7 kmh 30.76 in1041.7 mb 0.00 in0.0 mm 0.00 in0.0 mm 0.00 in0.0 mm
02:29 AM -4.9°F-20.5°C -9.0°F-22.8°C 82% 6.0 mph WNW9.7 kmh WNW 8.0 mph12.9 kmh 30.76 in1041.7 mb 0.00 in0.0 mm 0.00 in0.0 mm 0.00 in0.0 mm
02:28 AM -4.9°F-20.5°C -9.0°F-22.8°C 82% 6.0 mph WNW9.7 kmh WNW 7.0 mph11.3 kmh 30.76 in1041.7 mb 0.00 in0.0 mm 0.00 in0.0 mm 0.00 in0.0 mm
02:27 AM -5.0°F-20.6°C -9.1°F-22.8°C 82% 3.0 mph WNW4.8 kmh WNW 7.0 mph11.3 kmh 30.76 in1041.7 mb 0.00 in0.0 mm 0.00 in0.0 mm 0.00 in0.0 mm
02:26 AM -5.0°F-20.6°C -9.1°F-22.8°C 82% 4.0 mph WNW6.4 kmh WNW 7.0 mph11.3 kmh 30.76 in1041.7 mb 0.00 in0.0 mm 0.00 in0.0 mm 0.00 in0.0 mm
02:25 AM -5.2°F-20.7°C -9.3°F-22.9°C 82% 7.0 mph WNW11.3 kmh WNW 7.0 mph11.3 kmh 30.76 in1041.7 mb 0.00 in0.0 mm 0.00 in0.0 mm 0.00 in0.0 mm
02:24 AM -5.2°F-20.7°C -9.5°F-23.1°C 81% 3.0 mph WNW4.8 kmh WNW 7.0 mph11.3 kmh 30.76 in1041.7 mb 0.00 in0.0 mm 0.00 in0.0 mm 0.00 in0.0 mm
02:23 AM -5.3°F-20.7°C -9.6°F-23.1°C 81% 5.0 mph WNW8.0 kmh WNW 7.0 mph11.3 kmh 30.76 in1041.7 mb 0.00 in0.0 mm 0.00 in0.0 mm 0.00 in0.0 mm
02:22 AM -5.3°F-20.7°C -9.6°F-23.1°C 81% 7.0 mph WNW11.3 kmh WNW 7.0 mph11.3 kmh 30.76 in1041.7 mb 0.00 in0.0 mm 0.00 in0.0 mm 0.00 in0.0 mm
02:21 AM -5.3°F-20.7°C -9.6°F-23.1°C 81% 4.0 mph W6.4 kmh W 5.0 mph8.0 kmh 30.76 in1041.7 mb 0.00 in0.0 mm 0.00 in0.0 mm 0.00 in0.0 mm
02:20 AM -5.3°F-20.7°C -9.6°F-23.1°C 81% 3.0 mph NW4.8 kmh NW 5.0 mph8.0 kmh 30.76 in1041.7 mb 0.00 in0.0 mm 0.00 in0.0 mm 0.00 in0.0 mm
02:19 AM -5.3°F-20.7°C -9.6°F-23.1°C 81% 1.0 mph NW1.6 kmh NW 5.0 mph8.0 kmh 30.75 in1041.3 mb 0.00 in0.0 mm 0.00 in0.0 mm 0.00 in0.0 mm
02:18 AM -5.2°F-20.7°C -9.5°F-23.1°C 81% Calm Calm 5.0 mph8.0 kmh 30.75 in1041.3 mb 0.00 in0.0 mm 0.00 in0.0 mm 0.00 in0.0 mm
02:17 AM -5.2°F-20.7°C -9.5°F-23.1°C 81% Calm Calm 5.0 mph8.0 kmh 30.75 in1041.3 mb 0.00 in0.0 mm 0.00 in0.0 mm 0.00 in0.0 mm
02:16 AM -5.2°F-20.7°C -9.5°F-23.1°C 81% 1.0 mph NW1.6 kmh NW 5.0 mph8.0 kmh 30.75 in1041.3 mb 0.00 in0.0 mm 0.00 in0.0 mm 0.00 in0.0 mm
02:15 AM -5.2°F-20.7°C -9.5°F-23.1°C 81% Calm Calm 5.0 mph8.0 kmh 30.75 in1041.3 mb 0.00 in0.0 mm 0.00 in0.0 mm 0.00 in0.0 mm
02:14 AM -5.1°F-20.6°C -9.4°F-23.0°C 81% 2.0 mph NW3.2 kmh NW 5.0 mph8.0 kmh 30.75 in1041.3 mb 0.00 in0.0 mm 0.00 in0.0 mm 0.00 in0.0 mm
02:13 AM -5.1°F-20.6°C -9.7°F-23.2°C 80% 3.0 mph NW4.8 kmh NW 5.0 mph8.0 kmh 30.75 in1041.3 mb 0.00 in0.0 mm 0.00 in0.0 mm 0.00 in0.0 mm
02:12 AM -5.0°F-20.6°C -9.6°F-23.1°C 80% 2.0 mph NW3.2 kmh NW 4.0 mph6.4 kmh 30.75 in1041.3 mb 0.00 in0.0 mm 0.00 in0.0 mm 0.00 in0.0 mm
02:11 AM -5.0°F-20.6°C -9.3°F-22.9°C 81% 3.0 mph NW4.8 kmh NW 4.0 mph6.4 kmh 30.74 in1041.0 mb 0.00 in0.0 mm 0.00 in0.0 mm 0.00 in0.0 mm
02:10 AM -4.9°F-20.5°C -9.5°F-23.1°C 80% 2.0 mph NW3.2 kmh NW 4.0 mph6.4 kmh 30.74 in1041.0 mb 0.00 in0.0 mm 0.00 in0.0 mm 0.00 in0.0 mm
02:09 AM -4.9°F-20.5°C -9.5°F-23.1°C 80% 2.0 mph NW3.2 kmh NW 4.0 mph6.4 kmh 30.75 in1041.3 mb 0.00 in0.0 mm 0.00 in0.0 mm 0.00 in0.0 mm
02:08 AM -4.8°F-20.4°C -9.4°F-23.0°C 80% Calm Calm 2.0 mph3.2 kmh 30.75 in1041.3 mb 0.00 in0.0 mm 0.00 in0.0 mm 0.00 in0.0 mm
02:07 AM -4.5°F-20.3°C -9.3°F-22.9°C 79% Calm Calm 2.0 mph3.2 kmh 30.75 in1041.3 mb 0.00 in0.0 mm 0.00 in0.0 mm 0.00 in0.0 mm
02:06 AM -4.5°F-20.3°C -9.3°F-22.9°C 79% Calm Calm 2.0 mph3.2 kmh 30.75 in1041.3 mb 0.00 in0.0 mm 0.00 in0.0 mm 0.00 in0.0 mm
02:05 AM -4.5°F-20.3°C -9.3°F-22.9°C 79% Calm Calm 2.0 mph3.2 kmh 30.75 in1041.3 mb 0.00 in0.0 mm 0.00 in0.0 mm 0.00 in0.0 mm
02:04 AM -4.5°F-20.3°C -9.3°F-22.9°C 79% Calm Calm 2.0 mph3.2 kmh 30.75 in1041.3 mb 0.00 in0.0 mm 0.00 in0.0 mm 0.00 in0.0 mm
02:03 AM -4.5°F-20.3°C -9.3°F-22.9°C 79% Calm Calm 2.0 mph3.2 kmh 30.75 in1041.3 mb 0.00 in0.0 mm 0.00 in0.0 mm 0.00 in0.0 mm
02:02 AM -4.4°F-20.2°C -9.3°F-22.9°C 79% 1.0 mph NW1.6 kmh NW 2.0 mph3.2 kmh 30.75 in1041.3 mb 0.00 in0.0 mm 0.00 in0.0 mm 0.00 in0.0 mm
02:01 AM -4.2°F-20.1°C -9.1°F-22.8°C 79% 1.0 mph NW1.6 kmh NW 2.0 mph3.2 kmh 30.75 in1041.3 mb 0.00 in0.0 mm 0.00 in0.0 mm 0.00 in0.0 mm
02:00 AM -4.0°F-20.0°C -8.9°F-22.7°C 79% 1.0 mph NW1.6 kmh NW 1.0 mph1.6 kmh 30.75 in1041.3 mb 0.00 in0.0 mm 0.00 in0.0 mm 0.00 in0.0 mm
01:59 AM -3.8°F-19.9°C -8.4°F-22.4°C 80% Calm Calm 6.0 mph9.7 kmh 30.75 in1041.3 mb 0.00 in0.0 mm 0.00 in0.0 mm 0.00 in0.0 mm
01:58 AM -3.5°F-19.7°C -8.1°F-22.3°C 80% 1.0 mph NW1.6 kmh NW 6.0 mph9.7 kmh 30.75 in1041.3 mb 0.00 in0.0 mm 0.00 in0.0 mm 0.00 in0.0 mm
01:57 AM -3.4°F-19.7°C -8.0°F-22.2°C 80% Calm Calm 6.0 mph9.7 kmh 30.75 in1041.3 mb 0.00 in0.0 mm 0.00 in0.0 mm 0.00 in0.0 mm
01:56 AM -3.4°F-19.7°C -8.0°F-22.2°C 80% Calm Calm 6.0 mph9.7 kmh 30.75 in1041.3 mb 0.00 in0.0 mm 0.00 in0.0 mm 0.00 in0.0 mm
01:55 AM -3.3°F-19.6°C -7.9°F-22.2°C 80% 3.0 mph NW4.8 kmh NW 6.0 mph9.7 kmh 30.75 in1041.3 mb 0.00 in0.0 mm 0.00 in0.0 mm 0.00 in0.0 mm
01:54 AM -3.3°F-19.6°C -7.9°F-22.2°C 80% Calm Calm 6.0 mph9.7 kmh 30.75 in1041.3 mb 0.00 in0.0 mm 0.00 in0.0 mm 0.00 in0.0 mm
01:53 AM -3.3°F-19.6°C -7.9°F-22.2°C 80% 3.0 mph NW4.8 kmh NW 6.0 mph9.7 kmh 30.74 in1041.0 mb 0.00 in0.0 mm 0.00 in0.0 mm 0.00 in0.0 mm
01:52 AM -3.2°F-19.6°C -7.8°F-22.1°C 80% 2.0 mph NW3.2 kmh NW 6.0 mph9.7 kmh 30.74 in1041.0 mb 0.00 in0.0 mm 0.00 in0.0 mm 0.00 in0.0 mm
01:51 AM -3.2°F-19.6°C -7.8°F-22.1°C 80% 4.0 mph NW6.4 kmh NW 6.0 mph9.7 kmh 30.74 in1041.0 mb 0.00 in0.0 mm 0.00 in0.0 mm 0.00 in0.0 mm
01:50 AM -3.2°F-19.6°C -7.8°F-22.1°C 80% 5.0 mph NW8.0 kmh NW 6.0 mph9.7 kmh 30.74 in1041.0 mb 0.00 in0.0 mm 0.00 in0.0 mm 0.00 in0.0 mm
01:49 AM -3.1°F-19.5°C -7.7°F-22.1°C 80% 5.0 mph NW8.0 kmh NW 6.0 mph9.7 kmh 30.74 in1041.0 mb 0.00 in0.0 mm 0.00 in0.0 mm 0.00 in0.0 mm
01:48 AM -3.1°F-19.5°C -7.7°F-22.1°C 80% 4.0 mph NW6.4 kmh NW 6.0 mph9.7 kmh 30.74 in1041.0 mb 0.00 in0.0 mm 0.00 in0.0 mm 0.00 in0.0 mm
01:47 AM -3.1°F-19.5°C -7.7°F-22.1°C 80% 5.0 mph NW8.0 kmh NW 6.0 mph9.7 kmh 30.74 in1041.0 mb 0.00 in0.0 mm 0.00 in0.0 mm 0.00 in0.0 mm
01:46 AM -3.1°F-19.5°C -7.7°F-22.1°C 80% 5.0 mph NW8.0 kmh NW 6.0 mph9.7 kmh 30.74 in1041.0 mb 0.00 in0.0 mm 0.00 in0.0 mm 0.00 in0.0 mm
01:45 AM -3.1°F-19.5°C -7.7°F-22.1°C 80% 5.0 mph NW8.0 kmh NW 6.0 mph9.7 kmh 30.74 in1041.0 mb 0.00 in0.0 mm 0.00 in0.0 mm 0.00 in0.0 mm
01:44 AM -3.1°F-19.5°C -7.7°F-22.1°C 80% 6.0 mph NW9.7 kmh NW 6.0 mph9.7 kmh 30.74 in1041.0 mb 0.00 in0.0 mm 0.00 in0.0 mm 0.00 in0.0 mm
01:43 AM -3.1°F-19.5°C -7.7°F-22.1°C 80% 6.0 mph NW9.7 kmh NW 6.0 mph9.7 kmh 30.74 in1041.0 mb 0.00 in0.0 mm 0.00 in0.0 mm 0.00 in0.0 mm
01:42 AM -3.2°F-19.6°C -7.8°F-22.1°C 80% 5.0 mph NW8.0 kmh NW 6.0 mph9.7 kmh 30.75 in1041.3 mb 0.00 in0.0 mm 0.00 in0.0 mm 0.00 in0.0 mm
01:41 AM -3.2°F-19.6°C -7.8°F-22.1°C 80% 5.0 mph NW8.0 kmh NW 6.0 mph9.7 kmh 30.75 in1041.3 mb 0.00 in0.0 mm 0.00 in0.0 mm 0.00 in0.0 mm
01:40 AM -3.3°F-19.6°C -7.9°F-22.2°C 80% 5.0 mph NW8.0 kmh NW 6.0 mph9.7 kmh 30.74 in1041.0 mb 0.00 in0.0 mm 0.00 in0.0 mm 0.00 in0.0 mm
01:39 AM -3.4°F-19.7°C -8.0°F-22.2°C 80% 5.0 mph NW8.0 kmh NW 6.0 mph9.7 kmh 30.75 in1041.3 mb 0.00 in0.0 mm 0.00 in0.0 mm 0.00 in0.0 mm
01:38 AM -3.4°F-19.7°C -8.0°F-22.2°C 80% 5.0 mph NW8.0 kmh NW 6.0 mph9.7 kmh 30.75 in1041.3 mb 0.00 in0.0 mm 0.00 in0.0 mm 0.00 in0.0 mm
01:37 AM -3.4°F-19.7°C -8.0°F-22.2°C 80% 5.0 mph NW8.0 kmh NW 6.0 mph9.7 kmh 30.75 in1041.3 mb 0.00 in0.0 mm 0.00 in0.0 mm 0.00 in0.0 mm
01:36 AM -3.5°F-19.7°C -8.1°F-22.3°C 80% 5.0 mph NW8.0 kmh NW 6.0 mph9.7 kmh 30.75 in1041.3 mb 0.00 in0.0 mm 0.00 in0.0 mm 0.00 in0.0 mm
01:35 AM -3.5°F-19.7°C -8.1°F-22.3°C 80% 5.0 mph NW8.0 kmh NW 6.0 mph9.7 kmh 30.75 in1041.3 mb 0.00 in0.0 mm 0.00 in0.0 mm 0.00 in0.0 mm
01:34 AM -3.5°F-19.7°C -8.4°F-22.4°C 79% 5.0 mph NW8.0 kmh NW 6.0 mph9.7 kmh 30.75 in1041.3 mb 0.00 in0.0 mm 0.00 in0.0 mm 0.00 in0.0 mm
01:33 AM -3.5°F-19.7°C -8.4°F-22.4°C 79% 5.0 mph NW8.0 kmh NW 6.0 mph9.7 kmh 30.74 in1041.0 mb 0.00 in0.0 mm 0.00 in0.0 mm 0.00 in0.0 mm
01:32 AM -3.5°F-19.7°C -8.4°F-22.4°C 79% 4.0 mph NW6.4 kmh NW 5.0 mph8.0 kmh 30.74 in1041.0 mb 0.00 in0.0 mm 0.00 in0.0 mm 0.00 in0.0 mm
01:31 AM -3.5°F-19.7°C -8.4°F-22.4°C 79% 4.0 mph NW6.4 kmh NW 5.0 mph8.0 kmh 30.74 in1041.0 mb 0.00 in0.0 mm 0.00 in0.0 mm 0.00 in0.0 mm
01:30 AM -3.4°F-19.7°C -8.0°F-22.2°C 80% 3.0 mph NW4.8 kmh NW 5.0 mph8.0 kmh 30.74 in1041.0 mb 0.00 in0.0 mm 0.00 in0.0 mm 0.00 in0.0 mm
01:29 AM -3.3°F-19.6°C -7.9°F-22.2°C 80% 4.0 mph NW6.4 kmh NW 8.0 mph12.9 kmh 30.74 in1041.0 mb 0.00 in0.0 mm 0.00 in0.0 mm 0.00 in0.0 mm
01:28 AM -3.2°F-19.6°C -7.8°F-22.1°C 80% 3.0 mph NW4.8 kmh NW 8.0 mph12.9 kmh 30.74 in1041.0 mb 0.00 in0.0 mm 0.00 in0.0 mm 0.00 in0.0 mm
01:27 AM -3.2°F-19.6°C -7.8°F-22.1°C 80% 4.0 mph NW6.4 kmh NW 8.0 mph12.9 kmh 30.74 in1041.0 mb 0.00 in0.0 mm 0.00 in0.0 mm 0.00 in0.0 mm
01:26 AM -3.2°F-19.6°C -7.8°F-22.1°C 80% 3.0 mph NW4.8 kmh NW 8.0 mph12.9 kmh 30.74 in1041.0 mb 0.00 in0.0 mm 0.00 in0.0 mm 0.00 in0.0 mm
01:25 AM -3.2°F-19.6°C -7.8°F-22.1°C 80% 4.0 mph NW6.4 kmh NW 8.0 mph12.9 kmh 30.74 in1041.0 mb 0.00 in0.0 mm 0.00 in0.0 mm 0.00 in0.0 mm
01:24 AM -3.2°F-19.6°C -8.1°F-22.3°C 79% 5.0 mph NW8.0 kmh NW 8.0 mph12.9 kmh 30.74 in1041.0 mb 0.00 in0.0 mm 0.00 in0.0 mm 0.00 in0.0 mm
01:23 AM -3.2°F-19.6°C -8.1°F-22.3°C 79% 4.0 mph NW6.4 kmh NW 8.0 mph12.9 kmh 30.74 in1041.0 mb 0.00 in0.0 mm 0.00 in0.0 mm 0.00 in0.0 mm
01:22 AM -3.2°F-19.6°C -8.1°F-22.3°C 79% 3.0 mph NW4.8 kmh NW 8.0 mph12.9 kmh 30.74 in1041.0 mb 0.00 in0.0 mm 0.00 in0.0 mm 0.00 in0.0 mm
01:21 AM -3.2°F-19.6°C -8.1°F-22.3°C 79% 4.0 mph NW6.4 kmh NW 8.0 mph12.9 kmh 30.74 in1041.0 mb 0.00 in0.0 mm 0.00 in0.0 mm 0.00 in0.0 mm
01:20 AM -3.1°F-19.5°C -8.0°F-22.2°C 79% 4.0 mph NW6.4 kmh NW 8.0 mph12.9 kmh 30.74 in1041.0 mb 0.00 in0.0 mm 0.00 in0.0 mm 0.00 in0.0 mm
01:19 AM -3.1°F-19.5°C -8.0°F-22.2°C 79% 3.0 mph NW4.8 kmh NW 8.0 mph12.9 kmh 30.74 in1041.0 mb 0.00 in0.0 mm 0.00 in0.0 mm 0.00 in0.0 mm
01:18 AM -3.0°F-19.4°C -7.9°F-22.2°C 79% 4.0 mph NW6.4 kmh NW 8.0 mph12.9 kmh 30.74 in1041.0 mb 0.00 in0.0 mm 0.00 in0.0 mm 0.00 in0.0 mm
01:17 AM -2.9°F-19.4°C -7.8°F-22.1°C 79% 4.0 mph NW6.4 kmh NW 8.0 mph12.9 kmh 30.74 in1041.0 mb 0.00 in0.0 mm 0.00 in0.0 mm 0.00 in0.0 mm
01:16 AM -2.9°F-19.4°C -7.8°F-22.1°C 79% 5.0 mph NW8.0 kmh NW 8.0 mph12.9 kmh 30.74 in1041.0 mb 0.00 in0.0 mm 0.00 in0.0 mm 0.00 in0.0 mm
01:15 AM -2.8°F-19.3°C -7.7°F-22.1°C 79% 5.0 mph NW8.0 kmh NW 8.0 mph12.9 kmh 30.74 in1041.0 mb 0.00 in0.0 mm 0.00 in0.0 mm 0.00 in0.0 mm
01:14 AM -2.8°F-19.3°C -7.7°F-22.1°C 79% 6.0 mph NW9.7 kmh NW 8.0 mph12.9 kmh 30.74 in1041.0 mb 0.00 in0.0 mm 0.00 in0.0 mm 0.00 in0.0 mm
01:13 AM -2.7°F-19.3°C -7.6°F-22.0°C 79% 6.0 mph NW9.7 kmh NW 8.0 mph12.9 kmh 30.74 in1041.0 mb 0.00 in0.0 mm 0.00 in0.0 mm 0.00 in0.0 mm
01:12 AM -2.7°F-19.3°C -7.6°F-22.0°C 79% 5.0 mph NW8.0 kmh NW 8.0 mph12.9 kmh 30.74 in1041.0 mb 0.00 in0.0 mm 0.00 in0.0 mm 0.00 in0.0 mm
01:11 AM -2.6°F-19.2°C -7.5°F-21.9°C 79% 5.0 mph NW8.0 kmh NW 8.0 mph12.9 kmh 30.74 in1041.0 mb 0.00 in0.0 mm 0.00 in0.0 mm 0.00 in0.0 mm
01:10 AM -2.6°F-19.2°C -7.5°F-21.9°C 79% 5.0 mph NW8.0 kmh NW 8.0 mph12.9 kmh 30.74 in1041.0 mb 0.00 in0.0 mm 0.00 in0.0 mm 0.00 in0.0 mm
01:09 AM -2.5°F-19.2°C -7.4°F-21.9°C 79% 5.0 mph NW8.0 kmh NW 8.0 mph12.9 kmh 30.74 in1041.0 mb 0.00 in0.0 mm 0.00 in0.0 mm 0.00 in0.0 mm
01:08 AM -2.5°F-19.2°C -7.4°F-21.9°C 79% 5.0 mph NW8.0 kmh NW 8.0 mph12.9 kmh 30.74 in1041.0 mb 0.00 in0.0 mm 0.00 in0.0 mm 0.00 in0.0 mm
01:07 AM -2.5°F-19.2°C -7.4°F-21.9°C 79% 5.0 mph NW8.0 kmh NW 8.0 mph12.9 kmh 30.74 in1041.0 mb 0.00 in0.0 mm 0.00 in0.0 mm 0.00 in0.0 mm
01:06 AM -2.5°F-19.2°C -7.4°F-21.9°C 79% 5.0 mph NW8.0 kmh NW 8.0 mph12.9 kmh 30.74 in1041.0 mb 0.00 in0.0 mm 0.00 in0.0 mm 0.00 in0.0 mm
01:05 AM -2.4°F-19.1°C -7.3°F-21.8°C 79% 5.0 mph NW8.0 kmh NW 8.0 mph12.9 kmh 30.74 in1041.0 mb 0.00 in0.0 mm 0.00 in0.0 mm 0.00 in0.0 mm
01:04 AM -2.4°F-19.1°C -7.3°F-21.8°C 79% 5.0 mph NW8.0 kmh NW 8.0 mph12.9 kmh 30.74 in1041.0 mb 0.00 in0.0 mm 0.00 in0.0 mm 0.00 in0.0 mm
01:03 AM -2.4°F-19.1°C -7.3°F-21.8°C 79% 5.0 mph NW8.0 kmh NW 8.0 mph12.9 kmh 30.74 in1041.0 mb 0.00 in0.0 mm 0.00 in0.0 mm 0.00 in0.0 mm
01:02 AM -2.4°F-19.1°C -7.3°F-21.8°C 79% 6.0 mph NW9.7 kmh NW 8.0 mph12.9 kmh 30.74 in1041.0 mb 0.00 in0.0 mm 0.00 in0.0 mm 0.00 in0.0 mm
01:01 AM -2.3°F-19.1°C -7.2°F-21.8°C 79% 6.0 mph NW9.7 kmh NW 8.0 mph12.9 kmh 30.74 in1041.0 mb 0.00 in0.0 mm 0.00 in0.0 mm 0.00 in0.0 mm
01:00 AM -2.3°F-19.1°C -7.2°F-21.8°C 79% 7.0 mph NW11.3 kmh NW 8.0 mph12.9 kmh 30.74 in1041.0 mb 0.00 in0.0 mm 0.00 in0.0 mm 0.00 in0.0 mm
12:59 AM -2.3°F-19.1°C -7.2°F-21.8°C 79% 7.0 mph NW11.3 kmh NW 10.0 mph16.1 kmh 30.74 in1041.0 mb 0.00 in0.0 mm 0.00 in0.0 mm 0.00 in0.0 mm
12:58 AM -2.3°F-19.1°C -7.2°F-21.8°C 79% 6.0 mph NW9.7 kmh NW 10.0 mph16.1 kmh 30.74 in1041.0 mb 0.00 in0.0 mm 0.00 in0.0 mm 0.00 in0.0 mm
12:57 AM -2.3°F-19.1°C -7.2°F-21.8°C 79% 6.0 mph NW9.7 kmh NW 10.0 mph16.1 kmh 30.74 in1041.0 mb 0.00 in0.0 mm 0.00 in0.0 mm 0.00 in0.0 mm
12:56 AM -2.3°F-19.1°C -7.2°F-21.8°C 79% 7.0 mph NW11.3 kmh NW 10.0 mph16.1 kmh 30.74 in1041.0 mb 0.00 in0.0 mm 0.00 in0.0 mm 0.00 in0.0 mm
12:55 AM -2.3°F-19.1°C -7.2°F-21.8°C 79% 6.0 mph NW9.7 kmh NW 10.0 mph16.1 kmh 30.74 in1041.0 mb 0.00 in0.0 mm 0.00 in0.0 mm 0.00 in0.0 mm
12:54 AM -2.2°F-19.0°C -7.1°F-21.7°C 79% 6.0 mph NW9.7 kmh NW 10.0 mph16.1 kmh 30.74 in1041.0 mb 0.00 in0.0 mm 0.00 in0.0 mm 0.00 in0.0 mm
12:53 AM -2.2°F-19.0°C -7.1°F-21.7°C 79% 6.0 mph NW9.7 kmh NW 10.0 mph16.1 kmh 30.74 in1041.0 mb 0.00 in0.0 mm 0.00 in0.0 mm 0.00 in0.0 mm
12:52 AM -2.2°F-19.0°C -7.1°F-21.7°C 79% 5.0 mph NW8.0 kmh NW 10.0 mph16.1 kmh 30.74 in1041.0 mb 0.00 in0.0 mm 0.00 in0.0 mm 0.00 in0.0 mm
12:51 AM -2.2°F-19.0°C -7.1°F-21.7°C 79% 6.0 mph NW9.7 kmh NW 10.0 mph16.1 kmh 30.74 in1041.0 mb 0.00 in0.0 mm 0.00 in0.0 mm 0.00 in0.0 mm
12:50 AM -2.2°F-19.0°C -7.1°F-21.7°C 79% 7.0 mph NW11.3 kmh NW 10.0 mph16.1 kmh 30.74 in1041.0 mb 0.00 in0.0 mm 0.00 in0.0 mm 0.00 in0.0 mm
12:49 AM -2.2°F-19.0°C -7.1°F-21.7°C 79% 7.0 mph NW11.3 kmh NW 10.0 mph16.1 kmh 30.74 in1041.0 mb 0.00 in0.0 mm 0.00 in0.0 mm 0.00 in0.0 mm
12:48 AM -2.2°F-19.0°C -7.1°F-21.7°C 79% 6.0 mph NW9.7 kmh NW 10.0 mph16.1 kmh 30.74 in1041.0 mb 0.00 in0.0 mm 0.00 in0.0 mm 0.00 in0.0 mm
12:47 AM -2.2°F-19.0°C -7.1°F-21.7°C 79% 7.0 mph NW11.3 kmh NW 10.0 mph16.1 kmh 30.74 in1041.0 mb 0.00 in0.0 mm 0.00 in0.0 mm 0.00 in0.0 mm
12:46 AM -2.2°F-19.0°C -7.1°F-21.7°C 79% 6.0 mph NW9.7 kmh NW 10.0 mph16.1 kmh 30.74 in1041.0 mb 0.00 in0.0 mm 0.00 in0.0 mm 0.00 in0.0 mm
12:45 AM -2.2°F-19.0°C -7.1°F-21.7°C 79% 7.0 mph NW11.3 kmh NW 10.0 mph16.1 kmh 30.74 in1041.0 mb 0.00 in0.0 mm 0.00 in0.0 mm 0.00 in0.0 mm
12:44 AM -2.2°F-19.0°C -7.1°F-21.7°C 79% 8.0 mph NW12.9 kmh NW 10.0 mph16.1 kmh 30.73 in1040.6 mb 0.00 in0.0 mm 0.00 in0.0 mm 0.00 in0.0 mm
12:43 AM -2.2°F-19.0°C -7.1°F-21.7°C 79% 8.0 mph NW12.9 kmh NW 10.0 mph16.1 kmh 30.74 in1041.0 mb 0.00 in0.0 mm 0.00 in0.0 mm 0.00 in0.0 mm
12:42 AM -2.1°F-18.9°C -7.0°F-21.7°C 79% 8.0 mph NW12.9 kmh NW 9.0 mph14.5 kmh 30.74 in1041.0 mb 0.00 in0.0 mm 0.00 in0.0 mm 0.00 in0.0 mm
12:41 AM -2.1°F-18.9°C -7.0°F-21.7°C 79% 8.0 mph NW12.9 kmh NW 9.0 mph14.5 kmh 30.73 in1040.6 mb 0.00 in0.0 mm 0.00 in0.0 mm 0.00 in0.0 mm
12:40 AM -2.1°F-18.9°C -7.0°F-21.7°C 79% 7.0 mph NW11.3 kmh NW 8.0 mph12.9 kmh 30.73 in1040.6 mb 0.00 in0.0 mm 0.00 in0.0 mm 0.00 in0.0 mm
12:39 AM -2.1°F-18.9°C -7.0°F-21.7°C 79% 6.0 mph NW9.7 kmh NW 8.0 mph12.9 kmh 30.73 in1040.6 mb 0.00 in0.0 mm 0.00 in0.0 mm 0.00 in0.0 mm
12:38 AM -2.1°F-18.9°C -7.0°F-21.7°C 79% 6.0 mph NW9.7 kmh NW 8.0 mph12.9 kmh 30.73 in1040.6 mb 0.00 in0.0 mm 0.00 in0.0 mm 0.00 in0.0 mm
12:37 AM -2.0°F-18.9°C -6.9°F-21.6°C 79% 6.0 mph NW9.7 kmh NW 8.0 mph12.9 kmh 30.74 in1041.0 mb 0.00 in0.0 mm 0.00 in0.0 mm 0.00 in0.0 mm
12:36 AM -2.0°F-18.9°C -6.9°F-21.6°C 79% 7.0 mph NW11.3 kmh NW 8.0 mph12.9 kmh 30.73 in1040.6 mb 0.00 in0.0 mm 0.00 in0.0 mm 0.00 in0.0 mm
12:35 AM -1.9°F-18.8°C -6.8°F-21.6°C 79% 5.0 mph NW8.0 kmh NW 8.0 mph12.9 kmh 30.74 in1041.0 mb 0.00 in0.0 mm 0.00 in0.0 mm 0.00 in0.0 mm
12:34 AM -1.9°F-18.8°C -6.8°F-21.6°C 79% 7.0 mph NW11.3 kmh NW 8.0 mph12.9 kmh 30.74 in1041.0 mb 0.00 in0.0 mm 0.00 in0.0 mm 0.00 in0.0 mm
12:33 AM -1.9°F-18.8°C -6.8°F-21.6°C 79% 5.0 mph NW8.0 kmh NW 8.0 mph12.9 kmh 30.73 in1040.6 mb 0.00 in0.0 mm 0.00 in0.0 mm 0.00 in0.0 mm
12:32 AM -1.9°F-18.8°C -6.8°F-21.6°C 79% 7.0 mph NW11.3 kmh NW 8.0 mph12.9 kmh 30.73 in1040.6 mb 0.00 in0.0 mm 0.00 in0.0 mm 0.00 in0.0 mm
12:31 AM -1.8°F-18.8°C -6.7°F-21.5°C 79% 5.0 mph NW8.0 kmh NW 8.0 mph12.9 kmh 30.73 in1040.6 mb 0.00 in0.0 mm 0.00 in0.0 mm 0.00 in0.0 mm
12:30 AM -1.8°F-18.8°C -6.7°F-21.5°C 79% 7.0 mph NW11.3 kmh NW 8.0 mph12.9 kmh 30.73 in1040.6 mb 0.00 in0.0 mm 0.00 in0.0 mm 0.00 in0.0 mm
12:29 AM -1.8°F-18.8°C -6.7°F-21.5°C 79% 5.0 mph NW8.0 kmh NW 9.0 mph14.5 kmh 30.73 in1040.6 mb 0.00 in0.0 mm 0.00 in0.0 mm 0.00 in0.0 mm
12:28 AM -1.8°F-18.8°C -6.7°F-21.5°C 79% 6.0 mph NW9.7 kmh NW 9.0 mph14.5 kmh 30.73 in1040.6 mb 0.00 in0.0 mm 0.00 in0.0 mm 0.00 in0.0 mm
12:27 AM -1.8°F-18.8°C -6.7°F-21.5°C 79% 6.0 mph NW9.7 kmh NW 9.0 mph14.5 kmh 30.74 in1041.0 mb 0.00 in0.0 mm 0.00 in0.0 mm 0.00 in0.0 mm
12:26 AM -1.7°F-18.7°C -6.6°F-21.4°C 79% 8.0 mph NW12.9 kmh NW 9.0 mph14.5 kmh 30.74 in1041.0 mb 0.00 in0.0 mm 0.00 in0.0 mm 0.00 in0.0 mm
12:25 AM -1.7°F-18.7°C -6.6°F-21.4°C 79% 7.0 mph NW11.3 kmh NW 9.0 mph14.5 kmh 30.74 in1041.0 mb 0.00 in0.0 mm 0.00 in0.0 mm 0.00 in0.0 mm
12:24 AM -1.7°F-18.7°C -6.6°F-21.4°C 79% 8.0 mph NW12.9 kmh NW 8.0 mph12.9 kmh 30.73 in1040.6 mb 0.00 in0.0 mm 0.00 in0.0 mm 0.00 in0.0 mm
12:23 AM -1.7°F-18.7°C -6.6°F-21.4°C 79% 7.0 mph NW11.3 kmh NW 8.0 mph12.9 kmh 30.74 in1041.0 mb 0.00 in0.0 mm 0.00 in0.0 mm 0.00 in0.0 mm
12:22 AM -1.6°F-18.7°C -6.5°F-21.4°C 79% 7.0 mph WNW11.3 kmh WNW 8.0 mph12.9 kmh 30.74 in1041.0 mb 0.00 in0.0 mm 0.00 in0.0 mm 0.00 in0.0 mm
12:21 AM -1.6°F-18.7°C -6.5°F-21.4°C 79% 7.0 mph WNW11.3 kmh WNW 8.0 mph12.9 kmh 30.74 in1041.0 mb 0.00 in0.0 mm 0.00 in0.0 mm 0.00 in0.0 mm
12:20 AM -1.6°F-18.7°C -6.5°F-21.4°C 79% 7.0 mph WNW11.3 kmh WNW 8.0 mph12.9 kmh 30.74 in1041.0 mb 0.00 in0.0 mm 0.00 in0.0 mm 0.00 in0.0 mm
12:19 AM -1.6°F-18.7°C -6.5°F-21.4°C 79% 7.0 mph WNW11.3 kmh WNW 8.0 mph12.9 kmh 30.74 in1041.0 mb 0.00 in0.0 mm 0.00 in0.0 mm 0.00 in0.0 mm
12:18 AM -1.6°F-18.7°C -6.5°F-21.4°C 79% 7.0 mph WNW11.3 kmh WNW 8.0 mph12.9 kmh 30.74 in1041.0 mb 0.00 in0.0 mm 0.00 in0.0 mm 0.00 in0.0 mm
12:17 AM -1.6°F-18.7°C -6.5°F-21.4°C 79% 6.0 mph WNW9.7 kmh WNW 8.0 mph12.9 kmh 30.74 in1041.0 mb 0.00 in0.0 mm 0.00 in0.0 mm 0.00 in0.0 mm
12:16 AM -1.6°F-18.7°C -6.5°F-21.4°C 79% 7.0 mph WNW11.3 kmh WNW 8.0 mph12.9 kmh 30.74 in1041.0 mb 0.00 in0.0 mm 0.00 in0.0 mm 0.00 in0.0 mm
12:15 AM -1.6°F-18.7°C -6.5°F-21.4°C 79% 6.0 mph NW9.7 kmh NW 8.0 mph12.9 kmh 30.74 in1041.0 mb 0.00 in0.0 mm 0.00 in0.0 mm 0.00 in0.0 mm